Time;durP1;ratioP1;P1;durP2;ratioP2;P2;SDS_P1;SDS_P2;PMS_P1;PMS_P2;Temp;Humidity;BMP_temperature;BMP_pressure;BME280_temperature;BME280_humidity;BME280_pressure;Samples;Min_cycle;Max_cycle;Signal;HPM_P1;HPM_P2
2022/06/28 00:02:13;;;;;;;3.13;1.60;;;18.30;99.90;;;;;;5043231;28;20031;-75
2022/06/28 00:04:39;;;;;;;3.33;1.50;;;18.30;99.90;;;;;;5042685;28;20020;-75
2022/06/28 00:07:05;;;;;;;4.70;1.95;;;18.30;99.90;;;;;;5039287;28;20028;-75
2022/06/28 00:09:30;;;;;;;3.20;1.52;;;18.30;99.90;;;;;;5033173;28;20032;-75
2022/06/28 00:11:59;;;;;;;4.07;1.73;;;18.30;99.90;;;;;;5041807;28;20112;-75
2022/06/28 00:17:09;;;;;;;4.05;1.52;;;18.30;99.90;;;;;;5046157;28;20047;-75
2022/06/28 00:19:34;;;;;;;2.47;1.75;;;18.20;99.90;;;;;;5042287;28;20037;-75
2022/06/28 00:22:00;;;;;;;2.00;1.30;;;18.20;99.90;;;;;;5046289;28;20029;-75
2022/06/28 00:24:26;;;;;;;2.50;1.35;;;18.20;99.90;;;;;;5043912;28;20064;-75
2022/06/28 00:26:52;;;;;;;3.40;1.25;;;18.20;99.90;;;;;;5042764;28;20055;-75
2022/06/28 00:29:18;;;;;;;1.42;1.10;;;18.10;99.90;;;;;;5048155;28;20057;-75
2022/06/28 00:31:43;;;;;;;2.00;1.25;;;18.10;99.90;;;;;;5049801;28;20106;-75
2022/06/28 00:34:10;;;;;;;2.72;1.00;;;18.00;99.90;;;;;;5046639;28;20039;-75
2022/06/28 00:36:35;;;;;;;6.72;1.27;;;18.00;99.90;;;;;;5037869;28;20049;-75
2022/06/28 00:39:01;;;;;;;1.77;1.17;;;18.00;99.90;;;;;;5048871;28;20060;-75
2022/06/28 00:41:27;;;;;;;1.98;1.20;;;17.90;99.90;;;;;;5049254;28;20021;-75
2022/06/28 00:43:54;;;;;;;3.00;1.40;;;17.90;99.90;;;;;;5039002;28;20041;-74
2022/06/28 00:46:20;;;;;;;2.13;1.17;;;17.90;99.90;;;;;;5043655;28;20036;-74
2022/06/28 00:48:46;;;;;;;1.70;1.30;;;17.90;99.90;;;;;;5044060;28;20478;-75
2022/06/28 00:51:12;;;;;;;1.73;1.10;;;17.90;99.90;;;;;;5031513;28;20485;-75
2022/06/28 00:53:38;;;;;;;2.95;1.10;;;17.80;99.90;;;;;;5045155;28;20051;-75
2022/06/28 00:56:05;;;;;;;2.30;0.95;;;17.80;99.90;;;;;;5048949;28;20053;-75
2022/06/28 00:58:31;;;;;;;2.55;1.30;;;17.70;99.90;;;;;;5034681;28;20024;-75
2022/06/28 01:00:57;;;;;;;2.53;1.50;;;17.70;99.90;;;;;;5051704;28;20432;-75
2022/06/28 01:03:24;;;;;;;2.78;1.42;;;17.70;99.90;;;;;;5049243;28;20079;-75
2022/06/28 01:05:51;;;;;;;4.03;1.42;;;17.70;99.90;;;;;;5046695;28;20017;-75
2022/06/28 01:08:18;;;;;;;3.45;1.48;;;17.60;99.90;;;;;;5044658;28;20032;-75
2022/06/28 01:10:45;;;;;;;4.05;1.58;;;17.60;99.90;;;;;;5033446;28;20044;-75
2022/06/28 01:13:11;;;;;;;2.30;1.50;;;17.60;99.90;;;;;;5051906;28;20457;-75
2022/06/28 01:15:40;;;;;;;1.73;1.15;;;17.50;99.90;;;;;;5047002;28;20104;-75
2022/06/28 01:18:06;;;;;;;3.65;1.70;;;17.60;99.90;;;;;;5052878;28;20028;-75
2022/06/28 01:20:33;;;;;;;3.15;1.25;;;17.50;99.90;;;;;;5034978;28;20056;-75
2022/06/28 01:22:59;;;;;;;1.10;1.00;;;17.50;99.90;;;;;;5054330;28;20028;-75
2022/06/28 01:25:24;;;;;;;2.17;1.10;;;17.50;99.90;;;;;;5049616;28;20220;-76
2022/06/28 01:27:52;;;;;;;3.35;1.40;;;17.50;99.90;;;;;;5049698;28;20068;-75
2022/06/28 01:30:19;;;;;;;5.70;1.40;;;17.50;99.90;;;;;;5047447;28;20033;-75
2022/06/28 01:32:45;;;;;;;1.75;1.33;;;17.50;99.90;;;;;;5046240;28;20033;-75
2022/06/28 01:35:10;;;;;;;8.60;1.60;;;17.40;99.90;;;;;;5049926;28;20032;-75
2022/06/28 01:37:37;;;;;;;2.10;0.98;;;17.40;99.90;;;;;;5050454;28;20036;-76
2022/06/28 01:40:04;;;;;;;2.30;1.55;;;17.40;99.90;;;;;;5037588;28;20079;-76
2022/06/28 01:42:30;;;;;;;3.30;1.42;;;17.40;99.90;;;;;;5041959;28;20017;-76
2022/06/28 01:44:58;;;;;;;6.00;1.70;;;17.40;99.90;;;;;;5050772;28;20108;-75
2022/06/28 01:47:26;;;;;;;1.73;1.20;;;17.40;99.90;;;;;;5051660;28;20072;-73
2022/06/28 01:49:52;;;;;;;1.30;1.00;;;17.40;99.90;;;;;;5046379;28;20028;-75
2022/06/28 01:52:18;;;;;;;2.17;1.20;;;17.40;99.90;;;;;;5046406;28;20033;-74
2022/06/28 01:54:44;;;;;;;1.45;1.10;;;17.40;99.90;;;;;;5049806;28;20497;-75
2022/06/28 01:57:10;;;;;;;4.88;1.50;;;17.40;99.90;;;;;;5048318;28;20032;-76
2022/06/28 01:59:39;;;;;;;5.43;1.42;;;17.40;99.90;;;;;;5052226;28;20028;-75
2022/06/28 02:02:05;;;;;;;3.38;1.38;;;17.40;99.90;;;;;;5050278;28;20099;-75
2022/06/28 02:04:31;;;;;;;1.65;1.00;;;17.40;99.90;;;;;;5046918;28;20108;-76
2022/06/28 02:06:58;;;;;;;2.17;1.20;;;17.40;99.90;;;;;;5039477;28;20392;-75
2022/06/28 02:09:24;;;;;;;2.95;1.38;;;17.30;99.90;;;;;;5040931;28;20024;-75
2022/06/28 02:11:51;;;;;;;2.00;0.93;;;17.30;99.90;;;;;;5052565;28;20271;-76
2022/06/28 02:14:18;;;;;;;2.15;1.30;;;17.30;99.90;;;;;;5044716;28;20116;-76
2022/06/28 02:16:44;;;;;;;5.20;0.90;;;17.30;99.90;;;;;;5053525;28;20029;-74
2022/06/28 02:19:10;;;;;;;3.45;0.68;;;17.20;99.90;;;;;;5046447;28;20520;-74
2022/06/28 02:21:36;;;;;;;14.13;1.30;;;17.20;99.90;;;;;;5050507;28;20057;-75
2022/06/28 02:24:03;;;;;;;3.75;1.35;;;17.20;99.90;;;;;;5050762;28;20028;-74
2022/06/28 02:26:29;;;;;;;2.88;0.90;;;17.20;99.90;;;;;;5049564;28;20028;-74
2022/06/28 02:28:55;;;;;;;3.38;0.88;;;17.20;99.90;;;;;;5046685;28;20021;-75
2022/06/28 02:31:21;;;;;;;2.30;1.40;;;17.20;99.90;;;;;;5047961;28;20063;-75
2022/06/28 02:33:47;;;;;;;1.42;1.00;;;17.20;99.90;;;;;;5055798;28;20037;-75
2022/06/28 02:41:40;;;;;;;;;;;17.20;99.90;;;;;;5041429;28;20055;-75
2022/06/28 02:44:06;;;;;;;3.28;1.45;;;17.20;99.90;;;;;;5051039;28;19955;-75
2022/06/28 02:46:32;;;;;;;5.95;1.60;;;17.20;99.90;;;;;;5028856;28;20025;-75
2022/06/28 02:48:57;;;;;;;4.65;1.10;;;17.20;99.90;;;;;;5030899;28;20180;-75
2022/06/28 02:51:24;;;;;;;2.50;1.20;;;17.10;99.90;;;;;;5043365;28;20074;-74
2022/06/28 02:53:51;;;;;;;2.42;1.33;;;17.10;99.90;;;;;;5045493;28;20025;-74
2022/06/28 02:56:17;;;;;;;3.40;1.27;;;17.10;99.90;;;;;;5043255;28;20025;-75
2022/06/28 02:58:43;;;;;;;3.55;1.27;;;17.10;99.90;;;;;;5044419;28;20036;-75
2022/06/28 03:01:08;;;;;;;3.42;1.60;;;17.10;99.90;;;;;;5047465;28;20028;-75
2022/06/28 03:03:34;;;;;;;3.22;1.50;;;17.10;99.90;;;;;;5049262;28;20090;-73
2022/06/28 03:05:59;;;;;;;2.40;1.60;;;17.10;99.90;;;;;;5048376;28;20495;-74
2022/06/28 03:08:25;;;;;;;4.85;1.48;;;17.10;99.90;;;;;;5046118;28;20536;-75
2022/06/28 03:10:51;;;;;;;3.75;1.30;;;17.10;99.90;;;;;;5033384;28;20036;-75
2022/06/28 03:13:16;;;;;;;4.28;1.38;;;17.10;99.90;;;;;;5046464;28;20047;-75
2022/06/28 03:15:42;;;;;;;7.20;1.50;;;17.10;99.90;;;;;;5041844;28;20517;-76
2022/06/28 03:18:08;;;;;;;1.75;1.00;;;17.10;99.90;;;;;;5051626;28;20029;-75
2022/06/28 03:20:33;;;;;;;3.13;0.80;;;17.00;99.90;;;;;;5034210;28;20048;-76
2022/06/28 03:22:59;;;;;;;3.10;1.48;;;17.00;99.90;;;;;;5048807;28;20017;-75
2022/06/28 03:25:25;;;;;;;1.60;1.20;;;17.00;99.90;;;;;;5044419;28;20032;-76
2022/06/28 03:27:51;;;;;;;1.85;1.25;;;17.00;99.90;;;;;;5031289;28;20036;-76
2022/06/28 03:30:17;;;;;;;2.67;1.55;;;17.00;99.90;;;;;;5048462;28;20033;-76
2022/06/28 03:32:42;;;;;;;2.17;1.15;;;17.00;99.90;;;;;;5045997;28;20045;-75
2022/06/28 03:35:09;;;;;;;1.65;1.08;;;17.00;99.90;;;;;;5044404;28;20071;-75
2022/06/28 03:37:36;;;;;;;3.10;1.30;;;17.00;99.90;;;;;;5042923;28;20477;-75
2022/06/28 03:40:02;;;;;;;3.35;1.30;;;17.00;99.90;;;;;;5045695;28;20389;-76
2022/06/28 03:42:28;;;;;;;9.02;1.48;;;17.00;99.90;;;;;;5043018;28;20097;-75
2022/06/28 03:44:54;;;;;;;2.72;1.20;;;17.10;99.90;;;;;;5047834;28;20495;-76
2022/06/28 03:47:19;;;;;;;2.72;1.27;;;17.10;99.90;;;;;;5045701;28;20453;-75
2022/06/28 03:49:47;;;;;;;2.22;1.02;;;17.10;99.90;;;;;;5044693;28;20608;-75
2022/06/28 03:52:13;;;;;;;1.02;0.95;;;17.10;99.90;;;;;;5047614;28;20074;-75
2022/06/28 03:54:39;;;;;;;3.65;1.08;;;17.10;99.90;;;;;;5040563;28;20030;-75
2022/06/28 03:57:05;;;;;;;1.13;0.93;;;17.10;99.90;;;;;;5036260;28;20025;-75
2022/06/28 03:59:31;;;;;;;1.60;1.25;;;17.10;99.90;;;;;;5044576;28;20339;-76
2022/06/28 04:01:56;;;;;;;4.20;1.30;;;17.10;99.90;;;;;;5048860;28;20044;-74
2022/06/28 04:04:22;;;;;;;4.68;1.20;;;17.10;99.90;;;;;;5051763;28;20028;-76
2022/06/28 04:06:47;;;;;;;3.03;1.45;;;17.00;99.90;;;;;;5052950;28;20021;-74
2022/06/28 04:09:13;;;;;;;1.85;1.48;;;17.10;99.90;;;;;;5052412;28;20119;-75
2022/06/28 04:11:39;;;;;;;1.73;1.17;;;17.00;99.90;;;;;;5048104;28;20027;-75
2022/06/28 04:14:04;;;;;;;4.10;1.60;;;17.00;99.90;;;;;;5046800;28;20027;-76
2022/06/28 04:16:32;;;;;;;3.25;1.30;;;17.00;99.90;;;;;;5046656;28;20099;-75
2022/06/28 04:18:58;;;;;;;3.05;1.20;;;17.10;99.90;;;;;;5050804;28;20147;-75
2022/06/28 04:21:24;;;;;;;1.30;1.20;;;17.10;99.90;;;;;;5048976;28;20029;-76
2022/06/28 04:23:50;;;;;;;1.70;1.25;;;17.00;99.90;;;;;;5056004;28;20572;-75
2022/06/28 04:26:15;;;;;;;3.50;1.33;;;17.10;99.90;;;;;;5039147;28;20025;-74
2022/06/28 04:28:41;;;;;;;2.92;1.00;;;17.10;99.90;;;;;;5051365;28;20124;-75
2022/06/28 04:31:07;;;;;;;2.03;1.15;;;17.10;99.90;;;;;;5048133;28;20037;-75
2022/06/28 04:33:34;;;;;;;4.68;1.30;;;17.20;99.90;;;;;;5049678;28;20119;-74
2022/06/28 04:36:00;;;;;;;2.35;1.02;;;17.20;99.90;;;;;;5054773;28;20029;-74
2022/06/28 04:38:26;;;;;;;1.17;0.85;;;17.20;99.90;;;;;;5050668;28;20040;-75
2022/06/28 04:40:51;;;;;;;3.45;1.13;;;17.20;99.90;;;;;;5052609;28;20832;-68
2022/06/28 04:43:17;;;;;;;3.92;1.30;;;17.20;99.90;;;;;;5053306;28;20458;-68
2022/06/28 04:45:43;;;;;;;3.13;1.17;;;17.30;99.90;;;;;;5051966;28;21360;-68
2022/06/28 04:48:09;;;;;;;3.72;1.15;;;17.40;99.90;;;;;;5045344;28;20166;-68
2022/06/28 04:50:34;;;;;;;1.70;1.00;;;17.40;99.90;;;;;;5047401;28;20036;-68
2022/06/28 04:53:00;;;;;;;1.73;1.10;;;17.50;99.90;;;;;;5050978;28;20072;-76
2022/06/28 04:55:26;;;;;;;1.60;1.15;;;17.50;99.90;;;;;;5047019;28;20021;-73
2022/06/28 04:57:52;;;;;;;4.10;1.38;;;17.60;99.90;;;;;;5055692;28;20044;-74
2022/06/28 05:00:18;;;;;;;1.77;1.10;;;17.60;99.90;;;;;;5037304;28;20028;-75
2022/06/28 05:02:44;;;;;;;4.22;1.23;;;17.70;99.90;;;;;;5055180;28;20025;-74
2022/06/28 05:05:10;;;;;;;7.18;1.58;;;17.80;99.90;;;;;;5051968;28;20025;-75
2022/06/28 05:07:36;;;;;;;1.20;0.85;;;17.80;99.90;;;;;;5049223;28;20025;-74
2022/06/28 05:10:04;;;;;;;2.17;1.20;;;18.10;99.90;;;;;;5055505;28;20032;-75
2022/06/28 05:12:30;;;;;;;3.22;1.25;;;18.20;99.90;;;;;;5053603;28;20033;-75
2022/06/28 05:14:55;;;;;;;2.80;0.88;;;18.50;99.90;;;;;;5050648;28;21729;-75
2022/06/28 05:17:21;;;;;;;5.35;1.33;;;18.60;99.90;;;;;;5049883;28;20037;-74
2022/06/28 05:19:48;;;;;;;2.33;1.40;;;18.70;99.90;;;;;;5034694;28;20021;-74
2022/06/28 05:22:14;;;;;;;2.78;1.10;;;18.70;99.90;;;;;;5055196;28;20028;-74
2022/06/28 05:24:40;;;;;;;4.78;1.20;;;18.60;99.90;;;;;;5056757;28;20025;-74
2022/06/28 05:27:06;;;;;;;2.85;1.15;;;18.60;99.90;;;;;;5051879;28;20059;-75
2022/06/28 05:29:31;;;;;;;3.88;1.60;;;18.70;99.90;;;;;;5055892;28;20485;-74
2022/06/28 05:31:57;;;;;;;2.33;1.20;;;18.60;99.90;;;;;;5055869;28;20029;-75
2022/06/28 05:34:23;;;;;;;2.65;1.70;;;18.80;99.90;;;;;;5049847;28;20118;-73
2022/06/28 05:36:49;;;;;;;4.65;1.40;;;18.90;99.90;;;;;;5050890;28;20024;-74
2022/06/28 05:39:18;;;;;;;2.78;1.52;;;19.00;99.90;;;;;;5049999;28;20063;-75
2022/06/28 05:41:44;;;;;;;3.70;1.25;;;19.30;99.90;;;;;;5054864;28;20470;-75
2022/06/28 05:44:11;;;;;;;3.58;1.75;;;19.60;99.90;;;;;;5052519;28;20418;-75
2022/06/28 05:46:39;;;;;;;11.82;1.98;;;19.70;99.90;;;;;;5060831;28;20103;-75
2022/06/28 05:49:06;;;;;;;2.45;1.70;;;19.70;99.90;;;;;;5034023;28;20029;-75
2022/06/28 05:51:32;;;;;;;2.53;1.58;;;19.60;99.90;;;;;;5039561;28;20028;-76
2022/06/28 05:53:57;;;;;;;1.73;1.60;;;19.40;99.90;;;;;;5052603;28;20029;-75
2022/06/28 05:56:23;;;;;;;3.08;1.80;;;19.30;99.90;;;;;;5039931;28;20641;-74
2022/06/28 05:58:49;;;;;;;3.90;2.13;;;19.20;99.90;;;;;;5053707;28;20465;-75
2022/06/28 06:01:14;;;;;;;3.17;2.17;;;19.10;99.90;;;;;;5054832;28;20115;-76
2022/06/28 06:03:40;;;;;;;5.22;2.60;;;18.90;99.90;;;;;;5052477;28;20062;-76
2022/06/28 06:06:06;;;;;;;2.83;2.40;;;18.90;99.90;;;;;;5059782;28;20024;-76
2022/06/28 06:08:32;;;;;;;2.90;2.20;;;18.70;99.90;;;;;;5041379;28;20083;-76
2022/06/28 06:10:58;;;;;;;2.95;2.17;;;18.60;99.90;;;;;;5055152;28;20024;-76
2022/06/28 06:13:24;;;;;;;4.72;2.40;;;18.50;99.90;;;;;;5039896;28;20481;-75
2022/06/28 06:15:49;;;;;;;4.95;2.38;;;18.40;99.90;;;;;;5061874;28;20028;-77
2022/06/28 06:18:15;;;;;;;5.50;1.98;;;18.40;99.90;;;;;;5054053;28;20029;-75
2022/06/28 06:20:41;;;;;;;3.90;2.20;;;18.40;99.90;;;;;;5058736;28;20021;-73
2022/06/28 06:23:07;;;;;;;4.28;2.45;;;18.40;99.90;;;;;;5055425;28;20028;-75
2022/06/28 06:25:33;;;;;;;4.22;2.67;;;18.50;99.90;;;;;;5035757;28;20059;-75
2022/06/28 06:27:58;;;;;;;7.43;2.55;;;18.50;99.90;;;;;;5041822;28;20030;-74
2022/06/28 06:30:24;;;;;;;3.85;2.55;;;18.60;99.90;;;;;;5054284;28;20100;-76
2022/06/28 06:32:50;;;;;;;3.58;2.70;;;18.60;99.90;;;;;;5048442;28;20020;-75
2022/06/28 06:35:15;;;;;;;4.18;2.40;;;18.60;99.90;;;;;;5054892;28;20025;-75
2022/06/28 06:37:41;;;;;;;6.60;2.88;;;18.50;99.90;;;;;;5051819;28;20034;-75
2022/06/28 06:40:07;;;;;;;3.63;2.88;;;18.60;99.90;;;;;;5047464;28;20025;-76
2022/06/28 06:42:33;;;;;;;4.05;3.05;;;18.50;99.90;;;;;;5047491;28;20029;-75
2022/06/28 06:45:00;;;;;;;6.10;3.00;;;18.40;99.90;;;;;;5057629;28;20024;-76
2022/06/28 06:47:26;;;;;;;4.78;3.10;;;18.30;99.90;;;;;;5035161;28;20071;-76
2022/06/28 06:49:52;;;;;;;3.72;3.33;;;18.20;99.90;;;;;;5047975;28;20021;-76
2022/06/28 06:52:17;;;;;;;6.10;4.10;;;18.20;99.90;;;;;;5051531;28;20040;-75
2022/06/28 06:54:43;;;;;;;6.20;3.55;;;17.90;99.90;;;;;;5052726;28;20056;-75
2022/06/28 06:57:09;;;;;;;5.60;3.45;;;17.80;99.90;;;;;;5048332;28;20074;-75
2022/06/28 06:59:35;;;;;;;4.53;3.65;;;17.70;99.90;;;;;;5048998;28;20032;-75
2022/06/28 07:02:00;;;;;;;6.57;3.88;;;17.60;99.90;;;;;;5045400;28;20028;-74
2022/06/28 07:04:26;;;;;;;7.55;4.97;;;17.40;99.90;;;;;;5049938;28;20029;-74
2022/06/28 07:06:52;;;;;;;6.70;4.57;;;17.40;99.90;;;;;;5050861;28;20112;-73
2022/06/28 07:09:17;;;;;;;9.88;5.20;;;17.30;99.90;;;;;;5049621;28;20032;-75
2022/06/28 07:11:43;;;;;;;8.57;5.05;;;17.30;99.90;;;;;;5032315;28;20082;-75
2022/06/28 07:14:09;;;;;;;9.57;4.85;;;17.20;99.90;;;;;;5056549;28;20111;-76
2022/06/28 07:16:34;;;;;;;6.80;4.63;;;17.20;99.90;;;;;;5050553;28;20097;-76
2022/06/28 07:19:00;;;;;;;6.88;5.20;;;17.30;99.90;;;;;;5056937;28;20021;-77
2022/06/28 07:21:27;;;;;;;11.77;6.25;;;17.30;99.90;;;;;;5056076;28;20370;-76
2022/06/28 07:23:53;;;;;;;11.50;6.40;;;17.50;99.90;;;;;;5054632;28;20031;-76
2022/06/28 07:26:19;;;;;;;12.60;7.38;;;17.60;99.90;;;;;;5049680;28;20116;-77
2022/06/28 07:28:46;;;;;;;9.07;6.72;;;17.80;99.90;;;;;;5057959;28;20028;-77
2022/06/28 07:31:11;;;;;;;12.27;7.53;;;17.90;99.90;;;;;;5032789;28;20032;-77
2022/06/28 07:33:37;;;;;;;13.38;6.78;;;18.00;99.90;;;;;;5063373;28;20029;-74
2022/06/28 07:36:03;;;;;;;11.65;7.60;;;18.10;99.90;;;;;;5052466;28;20106;-75
2022/06/28 07:38:29;;;;;;;8.15;6.72;;;18.10;99.90;;;;;;5038283;28;20206;-75
2022/06/28 07:40:57;;;;;;;9.15;6.50;;;18.20;99.90;;;;;;5049591;28;20028;-76
2022/06/28 07:43:24;;;;;;;9.90;6.95;;;18.20;99.90;;;;;;5053843;28;20017;-74
2022/06/28 07:45:51;;;;;;;14.57;6.38;;;18.40;99.90;;;;;;5048831;28;20390;-74
2022/06/28 07:48:18;;;;;;;10.95;6.82;;;18.50;99.90;;;;;;5052114;28;20033;-73
2022/06/28 07:53:29;;;;;;;10.68;6.03;;;18.80;99.90;;;;;;5050926;28;20116;-73
2022/06/28 07:55:54;;;;;;;7.47;6.40;;;19.00;99.90;;;;;;5053447;28;20060;-73
2022/06/28 07:58:20;;;;;;;6.65;5.43;;;19.10;99.90;;;;;;5052703;28;20104;-73
2022/06/28 08:00:46;;;;;;;6.03;5.45;;;19.20;99.90;;;;;;5053868;28;20029;-74
2022/06/28 08:03:11;;;;;;;11.15;7.30;;;19.30;99.90;;;;;;5053458;28;20028;-74
2022/06/28 08:05:37;;;;;;;8.90;6.28;;;19.30;99.90;;;;;;5055028;28;20389;-74
2022/06/28 08:08:03;;;;;;;6.70;5.57;;;19.30;99.90;;;;;;5046076;28;20037;-74
2022/06/28 08:10:29;;;;;;;8.48;6.20;;;19.40;99.90;;;;;;5045275;28;20548;-75
2022/06/28 08:12:55;;;;;;;6.60;5.90;;;19.40;99.90;;;;;;5052430;28;20064;-74
2022/06/28 08:15:20;;;;;;;15.23;7.10;;;19.40;99.90;;;;;;5050565;28;20063;-73
2022/06/28 08:17:46;;;;;;;8.40;6.60;;;19.40;99.90;;;;;;5044399;28;20025;-74
2022/06/28 08:20:11;;;;;;;8.05;5.57;;;19.40;99.90;;;;;;5052145;28;20040;-73
2022/06/28 08:22:37;;;;;;;7.10;6.40;;;19.60;99.90;;;;;;5051283;28;20104;-73
2022/06/28 08:25:03;;;;;;;7.30;6.20;;;19.70;99.90;;;;;;5050222;28;20043;-72
2022/06/28 08:27:29;;;;;;;7.47;5.88;;;19.70;99.90;;;;;;5051297;28;20040;-72
2022/06/28 08:29:55;;;;;;;9.40;5.82;;;19.70;99.90;;;;;;5058148;28;20018;-72
2022/06/28 08:32:22;;;;;;;8.38;6.05;;;19.60;99.90;;;;;;5051406;28;20422;-73
2022/06/28 08:34:48;;;;;;;5.88;5.32;;;19.60;99.90;;;;;;5047341;28;20067;-72
2022/06/28 08:37:14;;;;;;;6.53;5.65;;;19.60;99.90;;;;;;5036568;28;20029;-72
2022/06/28 08:39:40;;;;;;;8.63;5.65;;;19.70;99.90;;;;;;5064413;28;20401;-74
2022/06/28 08:42:07;;;;;;;8.18;4.90;;;19.70;99.90;;;;;;5046874;28;20017;-73
2022/06/28 08:44:35;;;;;;;7.45;4.30;;;19.80;99.90;;;;;;5045030;28;20017;-74
2022/06/28 08:47:02;;;;;;;6.88;4.15;;;19.90;99.90;;;;;;5039997;28;20065;-74
2022/06/28 08:49:55;;;;;;;7.13;4.50;;;20.00;99.90;;;;;;5048286;28;20039;-74
2022/06/28 08:52:22;;;;;;;4.88;4.47;;;20.10;99.90;;;;;;5052719;28;20119;-74
2022/06/28 08:54:50;;;;;;;5.82;4.22;;;20.10;99.90;;;;;;5048892;28;20044;-74
2022/06/28 08:57:18;;;;;;;5.75;3.90;;;20.20;99.90;;;;;;5037082;28;20021;-74
2022/06/28 08:59:45;;;;;;;4.60;3.47;;;20.20;99.90;;;;;;5039290;28;20025;-75
2022/06/28 09:02:13;;;;;;;5.10;3.90;;;20.40;99.90;;;;;;5033955;28;21788;-75
2022/06/28 09:04:41;;;;;;;5.07;3.75;;;20.40;99.90;;;;;;5054980;28;20056;-75
2022/06/28 09:07:07;;;;;;;5.35;3.40;;;20.40;99.90;;;;;;5050168;28;20151;-75
2022/06/28 09:09:32;;;;;;;5.72;3.92;;;20.40;99.90;;;;;;5049146;28;20029;-75
2022/06/28 09:11:58;;;;;;;5.45;3.95;;;20.30;99.90;;;;;;5044372;28;20052;-74
2022/06/28 09:14:27;;;;;;;4.85;3.28;;;20.30;99.90;;;;;;5050823;28;20021;-74
2022/06/28 09:16:55;;;;;;;4.50;3.60;;;20.30;99.90;;;;;;5051610;28;20033;-74
2022/06/28 09:19:38;;;;;;;5.45;3.22;;;20.40;99.90;;;;;;5034968;28;20028;-74
2022/06/28 09:22:05;;;;;;;5.35;3.25;;;20.30;99.90;;;;;;5050662;28;20384;-76
2022/06/28 09:24:31;;;;;;;4.15;3.20;;;20.40;99.90;;;;;;5053573;28;20021;-73
2022/06/28 09:27:04;;;;;;;5.30;3.25;;;20.50;99.90;;;;;;5052215;28;20060;-75
2022/06/28 09:29:48;;;;;;;3.30;2.80;;;20.50;99.90;;;;;;5049218;28;20021;-75
2022/06/28 09:32:14;;;;;;;5.20;2.67;;;20.50;99.90;;;;;;5052197;28;20037;-73
2022/06/28 09:34:52;;;;;;;4.22;3.38;;;20.50;99.90;;;;;;5032860;28;20397;-74
2022/06/28 09:37:30;;;;;;;3.33;2.92;;;20.60;99.90;;;;;;5047662;28;20563;-73
2022/06/28 09:39:55;;;;;;;5.50;2.72;;;20.70;99.90;;;;;;5052238;28;20020;-73
2022/06/28 09:42:21;;;;;;;7.65;3.63;;;20.80;99.90;;;;;;5043471;28;20075;-74
2022/06/28 09:44:52;;;;;;;4.70;3.03;;;20.80;99.90;;;;;;5054407;28;20037;-73
2022/06/28 09:47:18;;;;;;;4.35;3.00;;;20.90;99.90;;;;;;5051631;28;20029;-73
2022/06/28 09:49:46;;;;;;;4.00;2.70;;;20.90;99.90;;;;;;5049378;28;20385;-73
2022/06/28 09:52:13;;;;;;;3.67;2.55;;;20.90;99.90;;;;;;5051007;28;20033;-74
2022/06/28 09:54:41;;;;;;;5.00;3.17;;;20.90;99.90;;;;;;5047881;28;20082;-75
2022/06/28 09:57:11;;;;;;;3.15;2.85;;;20.80;99.90;;;;;;5045502;28;20909;-75
2022/06/28 09:59:37;;;;;;;4.63;2.97;;;20.80;99.90;;;;;;5052889;28;20032;-74
2022/06/28 10:02:03;;;;;;;8.00;3.13;;;20.80;99.90;;;;;;5052850;28;20421;-75
2022/06/28 10:04:31;;;;;;;4.90;3.03;;;20.80;99.90;;;;;;5046506;28;20031;-73
2022/06/28 10:06:58;;;;;;;3.22;2.83;;;20.80;99.90;;;;;;5052362;28;20028;-73
2022/06/28 10:09:24;;;;;;;5.07;3.10;;;20.90;99.90;;;;;;5035446;28;21411;-74
2022/06/28 10:17:34;;;;;;;14.98;6.20;;;21.20;99.90;;;;;;5057868;28;20039;-73
2022/06/28 10:20:04;;;;;;;4.75;2.97;;;21.30;99.90;;;;;;5049971;28;20021;-73
2022/06/28 10:22:30;;;;;;;8.75;4.35;;;21.30;99.90;;;;;;5050020;28;20025;-73
2022/06/28 10:24:58;;;;;;;6.10;3.75;;;21.40;99.90;;;;;;5050354;28;20075;-74
2022/06/28 10:27:25;;;;;;;4.60;3.55;;;21.40;99.90;;;;;;5048707;28;20025;-74
2022/06/28 10:30:08;;;;;;;3.35;2.85;;;21.50;99.90;;;;;;5051771;28;20048;-75
2022/06/28 10:32:56;;;;;;;3.92;3.17;;;21.70;99.90;;;;;;5043966;28;20023;-74
2022/06/28 10:35:31;;;;;;;3.92;2.40;;;21.90;99.90;;;;;;5059405;28;20565;-74
2022/06/28 10:38:23;;;;;;;6.07;2.50;;;21.80;99.90;;;;;;5049805;28;20028;-74
2022/06/28 10:40:49;;;;;;;3.20;2.20;;;21.80;99.90;;;;;;5039682;28;20029;-75
2022/06/28 10:43:27;;;;;;;3.35;2.50;;;21.90;99.90;;;;;;5050366;28;20074;-73
2022/06/28 10:46:09;;;;;;;3.88;2.40;;;21.90;99.90;;;;;;5048423;28;20479;-75
2022/06/28 10:48:50;;;;;;;2.90;2.15;;;21.80;99.90;;;;;;5051277;28;20037;-72
2022/06/28 10:51:16;;;;;;;5.82;2.83;;;21.90;99.90;;;;;;5048564;28;20033;-72
2022/06/28 10:54:01;;;;;;;6.78;2.78;;;21.90;99.90;;;;;;5051094;28;20826;-73
2022/06/28 10:56:29;;;;;;;3.35;2.50;;;21.90;99.90;;;;;;5033727;28;20025;-73
2022/06/28 10:59:04;;;;;;;5.50;2.22;;;21.90;99.90;;;;;;5050401;28;20159;-73
2022/06/28 11:01:39;;;;;;;3.10;2.15;;;22.00;99.90;;;;;;5030587;28;20043;-73
2022/06/28 11:04:19;;;;;;;3.50;2.15;;;22.00;99.90;;;;;;5049728;28;20017;-73
2022/06/28 11:06:53;;;;;;;6.55;2.28;;;22.10;99.90;;;;;;5047820;28;20124;-72
2022/06/28 11:09:19;;;;;;;;;;;22.10;99.90;;;;;;5030672;28;20120;-74
2022/06/28 11:12:12;;;;;;;3.80;1.70;;;22.10;99.90;;;;;;5047456;28;20062;-72
2022/06/28 11:14:59;;;;;;;1.90;1.77;;;22.20;99.90;;;;;;5051382;28;20032;-73
2022/06/28 11:17:30;;;;;;;2.85;2.00;;;22.20;99.90;;;;;;5047698;28;20922;-72
2022/06/28 11:20:00;;;;;;;3.80;2.10;;;22.30;99.90;;;;;;5048721;28;20029;-73
2022/06/28 11:22:28;;;;;;;3.58;1.80;;;22.40;99.90;;;;;;5049107;28;20017;-74
2022/06/28 11:24:56;;;;;;;2.53;1.60;;;22.40;99.90;;;;;;5049116;28;20025;-74
2022/06/28 11:27:22;;;;;;;2.58;2.17;;;22.40;99.90;;;;;;5052833;28;20021;-72
2022/06/28 11:30:00;;;;;;;4.68;1.83;;;22.40;99.90;;;;;;5052757;28;20056;-73
2022/06/28 11:32:29;;;;;;;2.03;1.67;;;22.40;99.90;;;;;;5045552;28;20047;-72
2022/06/28 11:35:01;;;;;;;4.25;1.73;;;22.40;99.90;;;;;;5046144;28;20024;-71
2022/06/28 11:37:32;;;;;;;2.38;1.50;;;22.40;99.90;;;;;;5046464;28;20060;-73
2022/06/28 11:40:00;;;;;;;3.65;1.75;;;22.40;99.90;;;;;;5052534;28;20431;-72
2022/06/28 11:42:26;;;;;;;5.07;2.00;;;22.40;99.90;;;;;;5048012;28;20068;-72
2022/06/28 11:44:53;;;;;;;3.42;1.63;;;22.40;99.90;;;;;;5050644;28;20029;-73
2022/06/28 11:47:20;;;;;;;4.22;2.63;;;22.40;99.90;;;;;;5049148;28;20025;-73
2022/06/28 11:50:10;;;;;;;2.47;1.73;;;22.50;99.90;;;;;;5053830;28;20070;-73
2022/06/28 11:52:50;;;;;;;3.50;2.08;;;22.50;99.90;;;;;;5041577;28;20036;-73
2022/06/28 11:55:17;;;;;;;2.83;1.60;;;22.60;99.90;;;;;;5049054;28;20079;-72
2022/06/28 11:57:44;;;;;;;5.97;2.63;;;22.70;99.90;;;;;;5051459;28;20033;-73
2022/06/28 12:00:14;;;;;;;4.75;2.40;;;22.70;99.90;;;;;;5052073;28;20355;-73
2022/06/28 12:02:51;;;;;;;1.92;1.70;;;22.80;99.90;;;;;;5031158;28;20025;-72
2022/06/28 12:05:34;;;;;;;3.78;1.63;;;22.90;99.90;;;;;;5047099;28;20488;-73
2022/06/28 12:08:02;;;;;;;2.63;1.50;;;23.00;99.90;;;;;;5045265;28;20025;-73
2022/06/28 12:10:31;;;;;;;7.32;2.88;;;22.90;99.90;;;;;;5042265;28;20286;-74
2022/06/28 12:12:59;;;;;;;2.60;1.52;;;22.90;99.90;;;;;;5046588;28;20035;-73
2022/06/28 12:15:30;;;;;;;2.97;1.20;;;23.00;99.90;;;;;;5045174;28;20053;-73
2022/06/28 12:18:02;;;;;;;3.92;1.77;;;23.10;99.90;;;;;;5042840;28;20033;-74
2022/06/28 12:20:29;;;;;;;2.65;1.75;;;23.10;99.90;;;;;;5042198;28;20052;-73
2022/06/28 12:23:00;;;;;;;2.45;1.30;;;23.10;99.90;;;;;;5027628;28;20472;-73
2022/06/28 12:25:26;;;;;;;2.92;1.70;;;23.20;99.90;;;;;;5045870;28;20140;-72
2022/06/28 12:27:52;;;;;;;3.78;1.45;;;23.10;99.90;;;;;;5047732;28;20031;-73
2022/06/28 12:30:18;;;;;;;3.05;1.50;;;23.10;99.90;;;;;;5049476;28;20466;-74
2022/06/28 12:32:44;;;;;;;2.78;1.67;;;23.00;99.90;;;;;;5044126;28;20794;-73
2022/06/28 12:35:10;;;;;;;3.28;1.60;;;23.10;99.90;;;;;;5046087;28;20060;-73
2022/06/28 12:37:36;;;;;;;2.28;1.67;;;23.00;99.90;;;;;;5032404;28;20079;-75
2022/06/28 12:40:04;;;;;;;2.70;1.50;;;22.90;99.90;;;;;;4995480;28;20013;-73
2022/06/28 12:42:31;;;;;;;9.80;3.70;;;22.90;99.90;;;;;;5062214;28;20028;-74
2022/06/28 12:45:00;;;;;;;3.13;1.50;;;22.90;99.90;;;;;;5048591;28;20135;-74
2022/06/28 12:47:31;;;;;;;2.20;1.65;;;22.70;99.90;;;;;;5050867;28;20017;-74
2022/06/28 12:49:59;;;;;;;2.80;1.70;;;22.80;99.90;;;;;;5048097;28;20029;-74
2022/06/28 12:52:27;;;;;;;2.97;1.90;;;22.80;99.90;;;;;;5045189;28;20022;-73
2022/06/28 12:54:52;;;;;;;1.95;1.60;;;22.90;99.90;;;;;;5030673;28;20511;-74
2022/06/28 12:57:18;;;;;;;1.60;1.40;;;22.90;99.90;;;;;;5049759;28;20024;-73
2022/06/28 12:59:44;;;;;;;2.30;1.40;;;23.00;99.90;;;;;;5046638;28;20029;-73
2022/06/28 13:02:09;;;;;;;2.33;1.45;;;23.00;99.90;;;;;;5050004;28;20437;-73
2022/06/28 13:04:35;;;;;;;3.03;1.38;;;23.00;99.90;;;;;;5050911;28;20382;-73
2022/06/28 13:07:01;;;;;;;1.42;1.33;;;22.90;99.90;;;;;;5053203;28;20104;-73